Time;durP1;ratioP1;P1;durP2;ratioP2;P2;SDS_P1;SDS_P2;PMS_P1;PMS_P2;Temp;Humidity;BMP_temperature;BMP_pressure;BME280_temperature;BME280_humidity;BME280_pressure;Samples;Min_cycle;Max_cycle;Signal;HPM_P1;HPM_P2
2021/11/17 06:53:02;;;;;;;55.08;35.28;;;;;;;1.87;86.82;98729.98;1827373;77;20918;-58
2021/11/17 06:55:29;;;;;;;47.80;32.45;;;;;;;1.90;86.75;98737.48;1827314;78;21174;-58
2021/11/17 06:57:56;;;;;;;42.62;30.08;;;;;;;1.96;86.75;98730.00;1827812;78;21360;-59
2021/11/17 07:00:25;;;;;;;41.05;29.23;;;;;;;2.04;86.56;98733.70;1844326;77;20875;-58
2021/11/17 07:02:52;;;;;;;39.53;29.67;;;;;;;2.12;86.46;98733.41;1826849;78;20938;-56
2021/11/17 07:05:20;;;;;;;42.35;28.60;;;;;;;2.19;86.36;98724.89;1821573;78;21559;-57
2021/11/17 07:07:46;;;;;;;41.37;28.73;;;;;;;2.25;86.10;98722.72;1820143;78;21168;-58
2021/11/17 07:10:16;;;;;;;42.03;28.20;;;;;;;2.32;86.00;98727.42;1820166;78;21002;-58
2021/11/17 07:12:42;;;;;;;37.25;27.52;;;;;;;2.40;85.80;98732.94;1820023;78;20997;-59
2021/11/17 07:15:10;;;;;;;39.10;26.68;;;;;;;2.46;85.53;98723.61;1820197;78;21510;-58
2021/11/17 07:17:38;;;;;;;46.18;32.40;;;;;;;2.50;85.21;98723.45;1820171;78;21061;-60
2021/11/17 07:20:06;;;;;;;44.95;32.20;;;;;;;2.53;84.92;98731.45;1820775;78;21078;-57
2021/11/17 07:22:34;;;;;;;39.42;28.65;;;;;;;2.53;84.75;98725.66;1789857;78;20907;-59
2021/11/17 07:25:01;;;;;;;35.05;24.92;;;;;;;2.53;84.46;98722.20;1821280;78;20934;-59
2021/11/17 07:27:28;;;;;;;36.88;28.30;;;;;;;2.53;84.32;98727.48;1826480;78;20959;-57
2021/11/17 07:29:56;;;;;;;38.23;27.95;;;;;;;2.53;84.36;98726.98;1819260;77;20876;-57
2021/11/17 07:32:24;;;;;;;44.05;27.25;;;;;;;2.59;84.39;98723.44;1835675;77;21374;-60
2021/11/17 07:34:50;;;;;;;37.50;27.25;;;;;;;2.63;84.14;98722.50;1839449;77;20946;-58
2021/11/17 07:37:17;;;;;;;35.40;27.20;;;;;;;2.65;83.95;98727.05;1838117;77;20987;-61
2021/11/17 07:39:44;;;;;;;39.00;27.65;;;;;;;2.65;83.67;98726.55;1834873;77;20845;-59
2021/11/17 07:42:12;;;;;;;39.20;27.52;;;;;;;2.64;83.73;98736.81;1847335;77;20899;-60
2021/11/17 07:44:41;;;;;;;38.67;27.62;;;;;;;2.68;83.67;98733.23;1827173;77;21116;-58
2021/11/17 07:47:08;;;;;;;41.00;27.35;;;;;;;2.72;83.60;98737.03;1821504;77;20880;-58
2021/11/17 07:49:36;;;;;;;40.45;27.77;;;;;;;2.76;83.56;98732.91;1797859;78;20920;-57
2021/11/17 07:52:03;;;;;;;38.20;25.77;;;;;;;2.81;83.32;98728.27;1784113;79;21436;-56
2021/11/17 07:54:30;;;;;;;35.15;26.77;;;;;;;2.81;82.95;98733.05;1807295;77;21435;-59
2021/11/17 07:56:58;;;;;;;39.92;27.70;;;;;;;2.78;83.04;98726.37;1849718;77;21088;-57
2021/11/17 07:59:27;;;;;;;33.75;26.68;;;;;;;2.83;83.07;98732.31;1850118;77;20849;-57
2021/11/17 08:01:55;;;;;;;37.17;27.15;;;;;;;2.88;82.85;98721.06;1804718;77;20837;-58
2021/11/17 08:04:23;;;;;;;42.48;27.80;;;;;;;2.89;82.75;98722.69;1799260;79;20845;-59
2021/11/17 08:06:51;;;;;;;46.05;29.25;;;;;;;2.92;82.56;98723.58;1798825;77;20971;-60
2021/11/17 08:09:20;;;;;;;42.70;28.20;;;;;;;2.94;82.52;98725.48;1783806;79;20962;-58
2021/11/17 08:11:47;;;;;;;40.67;26.77;;;;;;;3.00;82.37;98729.86;1783156;79;20967;-58
2021/11/17 08:14:14;;;;;;;36.73;28.42;;;;;;;3.03;82.29;98726.78;1782961;79;20971;-58
2021/11/17 08:16:44;;;;;;;36.77;27.93;;;;;;;3.05;82.16;98730.00;1809133;77;21384;-59
2021/11/17 08:19:11;;;;;;;46.83;31.95;;;;;;;3.07;82.04;98722.13;1809201;77;20920;-57
2021/11/17 08:21:37;;;;;;;39.25;28.47;;;;;;;3.10;81.79;98731.47;1795425;78;21089;-60
2021/11/17 08:24:05;;;;;;;38.75;28.75;;;;;;;3.07;81.77;98726.10;1782872;80;20837;-59
2021/11/17 08:26:32;;;;;;;37.48;28.90;;;;;;;3.08;81.77;98728.23;1793084;77;20920;-58
2021/11/17 08:29:02;;;;;;;38.42;25.30;;;;;;;3.09;81.67;98727.19;1799424;78;21520;-59
2021/11/17 08:31:30;;;;;;;37.55;26.00;;;;;;;3.11;81.53;98731.77;1806427;77;21085;-58
2021/11/17 08:33:56;;;;;;;34.10;25.20;;;;;;;3.12;81.45;98734.69;1811866;78;21101;-57
2021/11/17 08:36:24;;;;;;;34.95;24.40;;;;;;;3.14;81.52;98729.98;1816103;78;21391;-57
2021/11/17 08:38:52;;;;;;;34.67;26.07;;;;;;;3.15;81.16;98728.95;1815921;79;20865;-58
2021/11/17 08:41:20;;;;;;;34.85;25.75;;;;;;;3.13;81.14;98729.70;1815897;79;20916;-59
2021/11/17 08:43:47;;;;;;;36.90;28.27;;;;;;;3.13;81.25;98733.67;1812776;79;20978;-63
2021/11/17 08:46:14;;;;;;;30.82;23.65;;;;;;;3.16;81.30;98732.70;1812148;79;21103;-60
2021/11/17 08:48:41;;;;;;;37.38;26.35;;;;;;;3.20;81.08;98732.52;1831592;77;20962;-58
2021/11/17 08:51:12;;;;;;;32.05;24.00;;;;;;;3.21;81.12;98726.72;1821581;78;20924;-59
2021/11/17 08:53:40;;;;;;;36.53;26.05;;;;;;;3.23;80.90;98728.11;1814080;79;20900;-58
2021/11/17 08:56:08;;;;;;;35.28;27.22;;;;;;;3.25;80.96;98728.69;1784153;77;21003;-58
2021/11/17 08:58:36;;;;;;;36.68;28.10;;;;;;;3.32;80.87;98732.59;1810724;79;21121;-58
2021/11/17 09:01:04;;;;;;;30.08;24.85;;;;;;;3.40;80.76;98736.23;1813182;79;21495;-57
2021/11/17 09:03:32;;;;;;;30.75;23.05;;;;;;;3.43;80.46;98738.43;1812668;79;21015;-56
2021/11/17 09:06:00;;;;;;;29.57;23.50;;;;;;;3.46;80.30;98740.64;1814039;79;20927;-56
2021/11/17 09:08:33;;;;;;;31.12;24.45;;;;;;;3.48;80.26;98738.56;1814615;79;20946;-58
2021/11/17 09:11:00;;;;;;;32.40;26.52;;;;;;;3.49;80.20;98742.81;1813608;79;21783;-58
2021/11/17 09:13:29;;;;;;;36.13;26.42;;;;;;;3.51;80.15;98742.06;1812254;79;20990;-57
2021/11/17 09:15:58;;;;;;;35.05;25.77;;;;;;;3.54;79.90;98737.64;1815220;79;20948;-58
2021/11/17 09:18:31;;;;;;;34.98;25.32;;;;;;;3.53;79.87;98737.38;1815455;79;20865;-58
2021/11/17 09:20:59;;;;;;;33.00;24.15;;;;;;;3.53;79.67;98744.00;1815308;78;20970;-58
2021/11/17 09:23:29;;;;;;;40.10;25.97;;;;;;;3.51;79.59;98734.12;1814488;79;21189;-58
2021/11/17 09:25:58;;;;;;;35.78;26.12;;;;;;;3.49;79.67;98732.22;1812695;79;20883;-60
2021/11/17 09:28:25;;;;;;;34.43;26.17;;;;;;;3.50;79.78;98725.90;1815083;79;21377;-58
2021/11/17 09:30:52;;;;;;;39.18;27.55;;;;;;;3.58;79.80;98725.55;1815200;78;20919;-58
2021/11/17 09:33:19;;;;;;;37.15;26.90;;;;;;;3.64;79.68;98719.36;1807399;77;21061;-57
2021/11/17 09:35:45;;;;;;;37.05;26.33;;;;;;;3.69;79.59;98711.54;1805336;77;20953;-56
2021/11/17 09:38:13;;;;;;;38.48;25.05;;;;;;;3.73;79.30;98706.06;1816471;77;21075;-58
2021/11/17 09:41:00;;;;;;;35.58;27.05;;;;;;;3.76;79.15;98703.48;1815470;79;20912;-58
2021/11/17 09:43:33;;;;;;;42.17;29.05;;;;;;;3.80;79.19;98709.41;1815791;78;22070;-56
2021/11/17 09:46:00;;;;;;;36.98;28.20;;;;;;;3.89;79.00;98701.41;1814607;79;21493;-57
2021/11/17 09:48:31;;;;;;;38.63;27.50;;;;;;;3.95;78.88;98697.85;1785308;79;21697;-55
2021/11/17 09:51:03;;;;;;;37.90;27.77;;;;;;;4.01;78.55;98694.27;1823767;78;21597;-56
2021/11/17 09:53:41;;;;;;;37.55;27.35;;;;;;;3.99;78.31;98687.58;1823814;78;21010;-56
2021/11/17 09:56:31;;;;;;;37.13;27.93;;;;;;;3.97;78.38;98682.52;1821042;78;21489;-57
2021/11/17 09:59:04;;;;;;;37.67;27.50;;;;;;;3.99;78.36;98688.39;1846824;77;21011;-57
2021/11/17 10:01:39;;;;;;;37.73;25.52;;;;;;;4.05;78.10;98680.05;1814412;77;21300;-59
2021/11/17 10:04:21;;;;;;;38.60;26.12;;;;;;;4.06;77.97;98681.64;1803089;79;21507;-59
2021/11/17 10:07:26;;;;;;;35.15;26.87;;;;;;;4.02;77.86;98676.02;1804244;79;20884;-56
2021/11/17 10:13:17;;;;;;;35.85;27.55;;;;;;;4.01;77.81;98678.36;1820195;78;20868;-57
2021/11/17 10:15:50;;;;;;;38.20;25.75;;;;;;;4.00;77.69;98684.69;1782950;78;21896;-57
2021/11/17 10:18:36;;;;;;;34.18;26.62;;;;;;;3.98;77.74;98684.11;1819414;78;20951;-56
2021/11/17 10:21:09;;;;;;;42.70;31.93;;;;;;;3.99;77.69;98668.52;1803811;78;24963;-55
2021/11/17 10:24:05;;;;;;;41.68;28.98;;;;;;;4.02;77.74;98668.05;1808254;78;21251;-58
2021/11/17 10:26:52;;;;;;;47.55;32.80;;;;;;;4.09;77.66;98669.25;1793656;78;21333;-57
2021/11/17 10:29:39;;;;;;;45.63;33.42;;;;;;;4.13;77.46;98671.20;1811074;78;21212;-57
2021/11/17 10:32:20;;;;;;;47.23;34.03;;;;;;;4.13;77.50;98669.88;1799379;78;20861;-58
2021/11/17 10:34:59;;;;;;;42.23;30.88;;;;;;;4.17;77.46;98667.55;1803281;78;20912;-58
2021/11/17 10:37:40;;;;;;;37.00;26.15;;;;;;;4.20;77.38;98671.08;1791377;78;20916;-57
2021/11/17 10:40:15;;;;;;;38.40;29.12;;;;;;;4.23;77.10;98669.81;1788174;80;20931;-58
2021/11/17 10:42:41;;;;;;;35.25;27.48;;;;;;;4.25;77.02;98669.87;1806178;78;21738;-58
2021/11/17 10:45:16;;;;;;;49.23;30.72;;;;;;;4.34;76.92;98667.13;1813210;78;20907;-57
2021/11/17 10:47:47;;;;;;;39.73;28.67;;;;;;;4.44;76.71;98673.17;1808962;78;20907;-59
2021/11/17 10:50:34;;;;;;;42.20;28.87;;;;;;;4.49;76.43;98667.46;1806181;79;21628;-57
2021/11/17 10:53:16;;;;;;;42.10;30.30;;;;;;;4.58;76.16;98661.25;1808869;78;20937;-58
2021/11/17 10:55:46;;;;;;;42.67;28.73;;;;;;;4.60;75.81;98660.49;1740408;82;21142;-58
2021/11/17 10:58:24;;;;;;;45.28;33.73;;;;;;;4.57;75.86;98658.33;1750477;81;20924;-59
2021/11/17 11:00:59;;;;;;;43.23;31.27;;;;;;;4.55;76.06;98652.43;1754130;80;21436;-61
2021/11/17 11:03:35;;;;;;;49.15;31.40;;;;;;;4.63;75.97;98654.21;1780402;80;20979;-61
2021/11/17 11:06:31;;;;;;;43.25;32.73;;;;;;;4.69;75.77;98659.08;1765701;80;20908;-59
2021/11/17 11:09:03;;;;;;;52.62;33.23;;;;;;;4.73;75.76;98657.58;1713383;81;21937;-59
2021/11/17 11:11:30;;;;;;;45.90;32.42;;;;;;;4.76;75.56;98663.20;1723447;81;20960;-63
2021/11/17 11:14:02;;;;;;;53.55;37.40;;;;;;;4.78;75.41;98653.70;1769962;80;21010;-58
2021/11/17 11:16:43;;;;;;;50.63;34.88;;;;;;;4.78;75.25;98652.37;1779877;80;20936;-58
2021/11/17 11:19:15;;;;;;;46.60;31.12;;;;;;;4.79;75.12;98652.13;1775346;80;20987;-64
2021/11/17 11:21:47;;;;;;;49.40;33.28;;;;;;;4.84;75.11;98638.14;1770863;80;21399;-62
2021/11/17 11:24:34;;;;;;;43.63;32.67;;;;;;;4.93;75.04;98644.67;1787288;80;20860;-58
2021/11/17 11:27:06;;;;;;;42.45;30.30;;;;;;;5.04;74.55;98642.48;1777163;80;21509;-60
2021/11/17 11:29:36;;;;;;;41.65;30.25;;;;;;;5.16;74.20;98637.13;1764483;80;20925;-58
2021/11/17 11:32:20;;;;;;;47.83;30.15;;;;;;;5.25;73.73;98632.48;1781169;80;21440;-58
2021/11/17 11:35:01;;;;;;;40.73;31.25;;;;;;;5.33;73.45;98636.09;1778973;80;21134;-57
2021/11/17 11:37:38;;;;;;;43.17;30.68;;;;;;;5.39;73.21;98635.11;1776246;80;21034;-57
2021/11/17 11:40:11;;;;;;;41.85;31.85;;;;;;;5.47;72.95;98632.06;1771434;81;21042;-58
2021/11/17 11:43:20;;;;;;;54.65;30.48;;;;;;;5.51;72.64;98625.21;1773611;80;21532;-59
2021/11/17 11:45:50;;;;;;;41.95;29.25;;;;;;;5.56;72.51;98630.34;1770221;80;21067;-58
2021/11/17 11:48:48;;;;;;;40.88;28.32;;;;;;;5.56;71.64;98628.47;1754685;81;21569;-61
2021/11/17 11:51:36;;;;;;;39.58;29.05;;;;;;;5.52;71.85;98632.15;1747165;81;21321;-59
2021/11/17 11:54:28;;;;;;;41.02;27.80;;;;;;;5.54;71.94;98631.38;1784763;80;21022;-62
2021/11/17 11:57:15;;;;;;;36.85;28.25;;;;;;;5.66;71.71;98630.48;1754788;81;21054;-59
2021/11/17 11:59:42;;;;;;;42.85;30.32;;;;;;;5.76;71.36;98623.47;1748964;80;21117;-58
2021/11/17 12:02:19;;;;;;;41.60;30.27;;;;;;;5.84;70.76;98619.09;1755676;81;21115;-62
2021/11/17 12:04:48;;;;;;;43.15;30.15;;;;;;;5.81;70.73;98617.42;1786959;80;20919;-57
2021/11/17 12:07:22;;;;;;;43.45;32.23;;;;;;;5.83;70.59;98610.00;1756464;81;20896;-58
2021/11/17 12:10:10;;;;;;;37.40;29.07;;;;;;;5.84;70.36;98615.62;1787411;80;21015;-60
2021/11/17 12:12:41;;;;;;;36.65;28.70;;;;;;;5.84;70.49;98614.28;1771775;80;20924;-57
2021/11/17 12:15:37;;;;;;;41.18;27.73;;;;;;;5.88;70.38;98610.92;1766722;81;21100;-63
2021/11/17 12:18:18;;;;;;;45.95;31.15;;;;;;;5.95;70.11;98604.91;1766784;81;20863;-61
2021/11/17 12:20:50;;;;;;;42.65;29.35;;;;;;;6.00;70.14;98606.83;1766672;81;20949;-59
2021/11/17 12:23:29;;;;;;;35.33;28.73;;;;;;;6.06;69.73;98604.50;1767099;81;20940;-61
2021/11/17 12:26:20;;;;;;;43.28;31.23;;;;;;;6.03;69.73;98607.13;1766728;81;21015;-61
2021/11/17 12:29:05;;;;;;;36.98;28.57;;;;;;;6.03;69.85;98607.13;1766817;81;21127;-60
2021/11/17 12:31:36;;;;;;;37.15;30.23;;;;;;;6.12;69.63;98600.88;1765631;81;21421;-58
2021/11/17 12:34:20;;;;;;;39.90;28.27;;;;;;;6.11;69.26;98600.06;1766630;81;20932;-59
2021/11/17 12:37:01;;;;;;;38.95;28.77;;;;;;;6.09;69.36;98606.67;1766406;81;20940;-58
2021/11/17 12:39:32;;;;;;;49.67;32.50;;;;;;;6.08;69.37;98601.06;1765873;81;20941;-59
2021/11/17 12:42:03;;;;;;;42.78;31.37;;;;;;;6.11;69.50;98609.89;1766636;81;21224;-60
2021/11/17 12:44:43;;;;;;;47.40;32.85;;;;;;;6.17;69.25;98608.92;1767262;81;20932;-59
2021/11/17 12:47:33;;;;;;;47.38;32.88;;;;;;;6.14;69.16;98604.09;1766754;81;20889;-62
2021/11/17 12:50:11;;;;;;;44.90;30.40;;;;;;;6.03;69.30;98599.70;1766748;81;20949;-58
2021/11/17 12:52:43;;;;;;;47.93;31.85;;;;;;;5.90;69.63;98603.50;1767068;81;21479;-58
2021/11/17 12:55:24;;;;;;;43.60;29.65;;;;;;;5.79;69.85;98607.56;1767035;81;21523;-59
2021/11/17 12:58:12;;;;;;;52.20;32.95;;;;;;;5.67;70.19;98606.34;1766793;81;20917;-57
2021/11/17 13:00:44;;;;;;;45.30;30.80;;;;;;;5.61;70.49;98609.95;1766831;81;20925;-60
2021/11/17 13:03:28;;;;;;;45.98;30.92;;;;;;;5.54;70.69;98610.12;1766738;81;20945;-60
2021/11/17 13:06:09;;;;;;;39.90;29.75;;;;;;;5.46;70.89;98606.53;1765390;81;20948;-61
2021/11/17 13:08:36;;;;;;;50.15;33.20;;;;;;;5.41;71.10;98601.16;1763495;81;21939;-59
2021/11/17 13:11:19;;;;;;;43.35;30.50;;;;;;;5.39;71.29;98600.58;1766693;81;20878;-62
2021/11/17 13:13:55;;;;;;;50.65;34.30;;;;;;;5.42;71.30;98608.07;1766716;81;21008;-62
2021/11/17 13:16:28;;;;;;;43.08;31.07;;;;;;;5.41;71.34;98602.49;1766505;81;20924;-58
2021/11/17 13:19:02;;;;;;;62.17;38.90;;;;;;;5.41;71.41;98606.48;1766074;81;20841;-57
2021/11/17 13:21:38;;;;;;;54.27;34.97;;;;;;;5.43;71.42;98604.38;1766820;81;21992;-59
2021/11/17 13:24:23;;;;;;;41.68;30.20;;;;;;;5.37;71.43;98594.70;1766747;81;20889;-61
2021/11/17 13:26:54;;;;;;;52.65;31.33;;;;;;;5.30;71.62;98602.58;1766780;81;21417;-59
2021/11/17 13:29:52;;;;;;;39.38;28.50;;;;;;;5.25;71.79;98599.28;1759499;81;20924;-59
2021/11/17 13:32:34;;;;;;;48.05;32.50;;;;;;;5.21;71.82;98594.18;1766738;81;21013;-63
2021/11/17 13:35:29;;;;;;;45.60;31.50;;;;;;;5.09;72.01;98594.77;1766830;81;21118;-58
2021/11/17 13:38:23;;;;;;;40.38;29.27;;;;;;;4.91;72.36;98594.19;1766744;81;20925;-57
2021/11/17 13:40:59;;;;;;;72.32;41.98;;;;;;;4.72;72.79;98600.23;1766894;81;21432;-59
2021/11/17 13:43:26;;;;;;;75.45;40.52;;;;;;;4.54;73.30;98601.75;1767051;81;20897;-57
2021/11/17 13:45:55;;;;;;;66.33;36.60;;;;;;;4.44;73.77;98606.86;1766832;81;21511;-58
2021/11/17 13:48:28;;;;;;;78.50;41.02;;;;;;;4.32;74.23;98603.43;1766846;81;21088;-56
2021/11/17 13:50:56;;;;;;;83.42;51.15;;;;;;;4.21;74.57;98598.97;1766284;81;21385;-58
2021/11/17 13:53:22;;;;;;;97.57;55.38;;;;;;;4.14;74.94;98595.13;1766946;81;20897;-59
2021/11/17 13:56:01;;;;;;;88.52;53.83;;;;;;;4.11;75.18;98596.41;1766475;81;20944;-58
2021/11/17 13:58:27;;;;;;;74.40;44.70;;;;;;;4.07;75.41;98592.59;1766782;81;21531;-59
2021/11/17 14:00:54;;;;;;;81.53;48.48;;;;;;;4.03;75.58;98600.73;1740682;81;21186;-59
2021/11/17 14:03:20;;;;;;;84.17;51.18;;;;;;;3.95;75.81;98601.11;1766749;81;21142;-58
2021/11/17 14:05:49;;;;;;;76.30;45.33;;;;;;;3.87;76.02;98603.29;1766553;81;20961;-56
2021/11/17 14:08:15;;;;;;;65.92;45.43;;;;;;;3.78;76.38;98606.82;1766933;81;20933;-58
2021/11/17 14:10:42;;;;;;;70.87;43.68;;;;;;;3.74;76.55;98603.03;1766722;81;20862;-61
2021/11/17 14:13:09;;;;;;;75.67;45.95;;;;;;;3.72;76.83;98605.08;1777742;80;21760;-61
2021/11/17 14:15:36;;;;;;;70.72;44.15;;;;;;;3.68;77.06;98598.64;1750457;81;20885;-57
2021/11/17 14:18:08;;;;;;;76.45;46.40;;;;;;;3.67;77.20;98595.72;1781478;80;20885;-61
2021/11/17 14:20:35;;;;;;;85.40;47.58;;;;;;;3.61;77.32;98601.92;1750443;82;20936;-61
2021/11/17 14:23:02;;;;;;;78.05;45.43;;;;;;;3.56;77.49;98595.73;1781445;80;20884;-55
2021/11/17 14:25:29;;;;;;;73.52;46.40;;;;;;;3.53;77.61;98598.31;1744412;82;21109;-56
2021/11/17 14:28:02;;;;;;;79.65;50.17;;;;;;;3.48;77.70;98598.19;1766071;81;20933;-57
2021/11/17 14:30:41;;;;;;;74.70;46.70;;;;;;;3.41;77.82;98601.47;1766119;81;20956;-58
2021/11/17 14:33:09;;;;;;;76.42;46.23;;;;;;;3.32;78.01;98598.33;1766053;81;20972;-57
2021/11/17 14:35:37;;;;;;;72.00;44.63;;;;;;;3.24;78.26;98599.20;1766533;81;20857;-59
2021/11/17 14:38:05;;;;;;;73.17;48.15;;;;;;;3.19;78.42;98600.40;1766290;81;21102;-58
2021/11/17 14:40:33;;;;;;;79.72;48.38;;;;;;;3.11;78.66;98594.12;1766231;81;20957;-59
2021/11/17 14:43:00;;;;;;;82.67;50.73;;;;;;;3.06;78.85;98596.65;1766314;81;21515;-59
2021/11/17 14:45:28;;;;;;;87.75;52.67;;;;;;;3.00;79.00;98596.21;1766335;81;21365;-58
2021/11/17 14:47:55;;;;;;;86.87;49.98;;;;;;;2.92;79.15;98590.73;1766175;81;21523;-59
2021/11/17 14:50:21;;;;;;;82.22;51.08;;;;;;;2.87;79.29;98587.16;1766134;81;21125;-58
2021/11/17 14:52:48;;;;;;;82.70;51.58;;;;;;;2.80;79.46;98590.42;1765993;81;20992;-57
2021/11/17 14:55:19;;;;;;;86.30;49.58;;;;;;;2.71;79.73;98594.70;1766248;81;20935;-59
2021/11/17 14:57:46;;;;;;;86.45;53.48;;;;;;;;;;1765229;81;20940;-62
2021/11/17 15:00:18;;;;;;;92.30;58.58;;;;;;;2.57;80.13;98603.84;1766397;81;20892;-60
2021/11/17 15:02:45;;;;;;;83.95;52.88;;;;;;;2.54;80.29;98600.32;1765018;81;21098;-57
